sensor_id;sensor_type;location;lat;lon;timestamp;temperature;humidity
16999;DHT22;10211;49.476;11.010;2023-08-12T00:00:19;19.20;99.90
16999;DHT22;10211;49.476;11.010;2023-08-12T00:02:46;19.20;99.90
16999;DHT22;10211;49.476;11.010;2023-08-12T00:05:13;19.20;99.90
16999;DHT22;10211;49.476;11.010;2023-08-12T00:07:41;19.10;99.90
16999;DHT22;10211;49.476;11.010;2023-08-12T00:10:09;18.90;99.90
16999;DHT22;10211;49.476;11.010;2023-08-12T00:12:38;19.00;99.90
16999;DHT22;10211;49.476;11.010;2023-08-12T00:15:06;19.00;99.90
16999;DHT22;10211;49.476;11.010;2023-08-12T00:17:33;19.00;99.90
16999;DHT22;10211;49.476;11.010;2023-08-12T00:20:01;18.80;99.90
16999;DHT22;10211;49.476;11.010;2023-08-12T00:22:30;18.80;99.90
16999;DHT22;10211;49.476;11.010;2023-08-12T00:24:57;18.90;99.90
16999;DHT22;10211;49.476;11.010;2023-08-12T00:27:24;18.80;99.90
16999;DHT22;10211;49.476;11.010;2023-08-12T00:29:52;18.70;99.90
16999;DHT22;10211;49.476;11.010;2023-08-12T00:32:19;18.70;99.90
16999;DHT22;10211;49.476;11.010;2023-08-12T00:34:45;18.70;99.90
16999;DHT22;10211;49.476;11.010;2023-08-12T00:37:12;18.60;99.90
16999;DHT22;10211;49.476;11.010;2023-08-12T00:39:39;18.60;99.90
16999;DHT22;10211;49.476;11.010;2023-08-12T00:42:06;18.60;99.90
16999;DHT22;10211;49.476;11.010;2023-08-12T00:44:33;18.50;99.90
16999;DHT22;10211;49.476;11.010;2023-08-12T00:47:01;18.50;99.90
16999;DHT22;10211;49.476;11.010;2023-08-12T00:49:28;18.50;99.90
16999;DHT22;10211;49.476;11.010;2023-08-12T00:51:55;18.40;99.90
16999;DHT22;10211;49.476;11.010;2023-08-12T00:54:22;18.40;99.90
16999;DHT22;10211;49.476;11.010;2023-08-12T00:56:50;18.40;99.90
16999;DHT22;10211;49.476;11.010;2023-08-12T00:59:18;18.30;99.90
16999;DHT22;10211;49.476;11.010;2023-08-12T01:01:46;18.30;99.90
16999;DHT22;10211;49.476;11.010;2023-08-12T01:04:15;18.30;99.90
16999;DHT22;10211;49.476;11.010;2023-08-12T01:06:41;18.20;99.90
16999;DHT22;10211;49.476;11.010;2023-08-12T01:09:08;18.20;99.90
16999;DHT22;10211;49.476;11.010;2023-08-12T01:11:39;18.10;99.90
16999;DHT22;10211;49.476;11.010;2023-08-12T01:14:11;18.20;99.90
16999;DHT22;10211;49.476;11.010;2023-08-12T01:16:41;18.10;99.90
16999;DHT22;10211;49.476;11.010;2023-08-12T01:19:11;18.10;99.90
16999;DHT22;10211;49.476;11.010;2023-08-12T01:21:43;18.10;99.90
16999;DHT22;10211;49.476;11.010;2023-08-12T01:24:12;18.00;99.90
16999;DHT22;10211;49.476;11.010;2023-08-12T01:26:38;18.00;99.90
16999;DHT22;10211;49.476;11.010;2023-08-12T01:29:05;18.00;99.90
16999;DHT22;10211;49.476;11.010;2023-08-12T01:31:37;17.90;99.90
16999;DHT22;10211;49.476;11.010;2023-08-12T01:34:11;17.90;99.90
16999;DHT22;10211;49.476;11.010;2023-08-12T01:36:39;17.90;99.90
16999;DHT22;10211;49.476;11.010;2023-08-12T01:39:08;18.20;99.90
16999;DHT22;10211;49.476;11.010;2023-08-12T01:41:38;17.80;99.90
16999;DHT22;10211;49.476;11.010;2023-08-12T01:44:05;17.80;99.90
16999;DHT22;10211;49.476;11.010;2023-08-12T01:46:32;17.80;99.90
16999;DHT22;10211;49.476;11.010;2023-08-12T01:48:58;17.70;99.90
16999;DHT22;10211;49.476;11.010;2023-08-12T01:51:25;17.70;99.90
16999;DHT22;10211;49.476;11.010;2023-08-12T01:53:52;17.70;99.90
16999;DHT22;10211;49.476;11.010;2023-08-12T01:56:18;17.70;99.90
16999;DHT22;10211;49.476;11.010;2023-08-12T01:58:46;17.70;99.90
16999;DHT22;10211;49.476;11.010;2023-08-12T02:01:13;17.60;99.90
16999;DHT22;10211;49.476;11.010;2023-08-12T02:03:40;17.60;99.90
16999;DHT22;10211;49.476;11.010;2023-08-12T02:06:06;17.60;99.90
16999;DHT22;10211;49.476;11.010;2023-08-12T02:08:33;17.50;99.90
16999;DHT22;10211;49.476;11.010;2023-08-12T02:11:00;17.50;99.90
16999;DHT22;10211;49.476;11.010;2023-08-12T02:13:26;17.50;99.90
16999;DHT22;10211;49.476;11.010;2023-08-12T02:15:54;17.40;99.90
16999;DHT22;10211;49.476;11.010;2023-08-12T02:18:21;17.30;99.90
16999;DHT22;10211;49.476;11.010;2023-08-12T02:20:48;17.40;99.90
16999;DHT22;10211;49.476;11.010;2023-08-12T02:23:15;17.40;99.90
16999;DHT22;10211;49.476;11.010;2023-08-12T02:25:41;17.30;99.90
16999;DHT22;10211;49.476;11.010;2023-08-12T02:28:08;17.40;99.90
16999;DHT22;10211;49.476;11.010;2023-08-12T02:30:35;17.30;99.90
16999;DHT22;10211;49.476;11.010;2023-08-12T02:33:03;17.30;99.90
16999;DHT22;10211;49.476;11.010;2023-08-12T02:35:30;17.20;99.90
16999;DHT22;10211;49.476;11.010;2023-08-12T02:37:56;17.20;99.90
16999;DHT22;10211;49.476;11.010;2023-08-12T02:40:23;17.20;99.90
16999;DHT22;10211;49.476;11.010;2023-08-12T02:42:50;17.20;99.90
16999;DHT22;10211;49.476;11.010;2023-08-12T02:45:16;17.20;99.90
16999;DHT22;10211;49.476;11.010;2023-08-12T02:47:43;17.20;99.90
16999;DHT22;10211;49.476;11.010;2023-08-12T02:50:11;17.10;99.90
16999;DHT22;10211;49.476;11.010;2023-08-12T02:52:38;17.10;99.90
16999;DHT22;10211;49.476;11.010;2023-08-12T02:55:05;17.00;99.90
16999;DHT22;10211;49.476;11.010;2023-08-12T02:57:32;17.10;99.90
16999;DHT22;10211;49.476;11.010;2023-08-12T02:59:59;17.10;99.90
16999;DHT22;10211;49.476;11.010;2023-08-12T03:02:25;17.10;99.90
16999;DHT22;10211;49.476;11.010;2023-08-12T03:04:52;17.10;99.90
16999;DHT22;10211;49.476;11.010;2023-08-12T03:07:21;17.00;99.90
16999;DHT22;10211;49.476;11.010;2023-08-12T03:09:47;17.10;99.90
16999;DHT22;10211;49.476;11.010;2023-08-12T03:12:14;17.00;99.90
16999;DHT22;10211;49.476;11.010;2023-08-12T03:14:41;16.90;99.90
16999;DHT22;10211;49.476;11.010;2023-08-12T03:17:07;16.90;99.90
16999;DHT22;10211;49.476;11.010;2023-08-12T03:19:34;16.90;99.90
16999;DHT22;10211;49.476;11.010;2023-08-12T03:22:01;16.90;99.90
16999;DHT22;10211;49.476;11.010;2023-08-12T03:24:29;16.90;99.90
16999;DHT22;10211;49.476;11.010;2023-08-12T03:26:56;16.80;99.90
16999;DHT22;10211;49.476;11.010;2023-08-12T03:29:23;16.80;99.90
16999;DHT22;10211;49.476;11.010;2023-08-12T03:31:49;16.80;99.90
16999;DHT22;10211;49.476;11.010;2023-08-12T03:34:16;16.80;99.90
16999;DHT22;10211;49.476;11.010;2023-08-12T03:36:43;16.70;99.90
16999;DHT22;10211;49.476;11.010;2023-08-12T03:39:14;16.70;99.90
16999;DHT22;10211;49.476;11.010;2023-08-12T03:41:46;16.70;99.90
16999;DHT22;10211;49.476;11.010;2023-08-12T03:44:12;16.70;99.90
16999;DHT22;10211;49.476;11.010;2023-08-12T03:46:39;16.70;99.90
16999;DHT22;10211;49.476;11.010;2023-08-12T03:49:06;16.60;99.90
16999;DHT22;10211;49.476;11.010;2023-08-12T03:51:33;16.70;99.90
16999;DHT22;10211;49.476;11.010;2023-08-12T03:54:00;16.70;99.90
16999;DHT22;10211;49.476;11.010;2023-08-12T03:56:26;16.70;99.90
16999;DHT22;10211;49.476;11.010;2023-08-12T03:58:54;16.70;99.90
16999;DHT22;10211;49.476;11.010;2023-08-12T04:01:21;16.70;99.90
16999;DHT22;10211;49.476;11.010;2023-08-12T04:03:48;16.70;99.90
16999;DHT22;10211;49.476;11.010;2023-08-12T04:06:14;16.70;99.90
16999;DHT22;10211;49.476;11.010;2023-08-12T04:08:41;16.80;99.90
16999;DHT22;10211;49.476;11.010;2023-08-12T04:11:08;16.70;99.90
16999;DHT22;10211;49.476;11.010;2023-08-12T04:13:35;16.70;99.90
16999;DHT22;10211;49.476;11.010;2023-08-12T04:16:03;16.80;99.90
16999;DHT22;10211;49.476;11.010;2023-08-12T04:18:30;16.80;99.90
16999;DHT22;10211;49.476;11.010;2023-08-12T04:20:56;16.80;99.90
16999;DHT22;10211;49.476;11.010;2023-08-12T04:23:23;16.90;99.90
16999;DHT22;10211;49.476;11.010;2023-08-12T04:25:52;16.90;99.90
16999;DHT22;10211;49.476;11.010;2023-08-12T04:28:19;16.90;99.90
16999;DHT22;10211;49.476;11.010;2023-08-12T04:30:47;16.90;99.90
16999;DHT22;10211;49.476;11.010;2023-08-12T04:33:17;17.00;99.90
16999;DHT22;10211;49.476;11.010;2023-08-12T04:35:46;17.00;99.90
16999;DHT22;10211;49.476;11.010;2023-08-12T04:38:12;17.10;99.90
16999;DHT22;10211;49.476;11.010;2023-08-12T04:40:41;17.10;99.90
16999;DHT22;10211;49.476;11.010;2023-08-12T04:43:08;17.10;99.90
16999;DHT22;10211;49.476;11.010;2023-08-12T04:45:35;17.20;99.90
16999;DHT22;10211;49.476;11.010;2023-08-12T04:48:02;17.20;99.90
16999;DHT22;10211;49.476;11.010;2023-08-12T04:50:31;17.20;99.90
16999;DHT22;10211;49.476;11.010;2023-08-12T04:53:00;17.30;99.90
16999;DHT22;10211;49.476;11.010;2023-08-12T04:55:27;17.30;99.90
16999;DHT22;10211;49.476;11.010;2023-08-12T04:57:54;17.30;99.90
16999;DHT22;10211;49.476;11.010;2023-08-12T05:00:21;17.40;99.90
16999;DHT22;10211;49.476;11.010;2023-08-12T05:02:48;17.50;99.90
16999;DHT22;10211;49.476;11.010;2023-08-12T05:05:15;17.50;99.90
16999;DHT22;10211;49.476;11.010;2023-08-12T05:07:43;17.50;99.90
16999;DHT22;10211;49.476;11.010;2023-08-12T05:10:14;17.60;99.90
16999;DHT22;10211;49.476;11.010;2023-08-12T05:12:41;17.60;99.90
16999;DHT22;10211;49.476;11.010;2023-08-12T05:15:09;17.70;99.90
16999;DHT22;10211;49.476;11.010;2023-08-12T05:17:35;17.70;99.90
16999;DHT22;10211;49.476;11.010;2023-08-12T05:20:03;17.80;99.90
16999;DHT22;10211;49.476;11.010;2023-08-12T05:22:29;17.80;99.90
16999;DHT22;10211;49.476;11.010;2023-08-12T05:24:57;17.80;99.90
16999;DHT22;10211;49.476;11.010;2023-08-12T05:27:24;17.90;99.90
16999;DHT22;10211;49.476;11.010;2023-08-12T05:29:51;18.00;99.90
16999;DHT22;10211;49.476;11.010;2023-08-12T05:32:18;18.10;99.90
16999;DHT22;10211;49.476;11.010;2023-08-12T05:34:44;18.10;99.90
16999;DHT22;10211;49.476;11.010;2023-08-12T05:37:11;18.30;99.90
16999;DHT22;10211;49.476;11.010;2023-08-12T05:39:38;18.50;99.90
16999;DHT22;10211;49.476;11.010;2023-08-12T05:42:06;18.80;99.90
16999;DHT22;10211;49.476;11.010;2023-08-12T05:44:33;19.20;99.90
16999;DHT22;10211;49.476;11.010;2023-08-12T05:46:59;19.50;99.90
16999;DHT22;10211;49.476;11.010;2023-08-12T05:49:26;20.00;99.90
16999;DHT22;10211;49.476;11.010;2023-08-12T05:51:53;20.60;99.90
16999;DHT22;10211;49.476;11.010;2023-08-12T05:54:19;20.80;99.90
16999;DHT22;10211;49.476;11.010;2023-08-12T05:56:46;20.90;99.90
16999;DHT22;10211;49.476;11.010;2023-08-12T05:59:14;21.10;99.90
16999;DHT22;10211;49.476;11.010;2023-08-12T06:01:40;21.50;99.90
16999;DHT22;10211;49.476;11.010;2023-08-12T06:04:07;21.60;99.90
16999;DHT22;10211;49.476;11.010;2023-08-12T06:06:34;21.60;99.90
16999;DHT22;10211;49.476;11.010;2023-08-12T06:09:00;21.50;99.90
16999;DHT22;10211;49.476;11.010;2023-08-12T06:11:27;21.40;99.90
16999;DHT22;10211;49.476;11.010;2023-08-12T06:13:54;21.40;99.90
16999;DHT22;10211;49.476;11.010;2023-08-12T06:16:22;21.30;99.90
16999;DHT22;10211;49.476;11.010;2023-08-12T06:18:49;21.20;99.90
16999;DHT22;10211;49.476;11.010;2023-08-12T06:21:15;21.20;99.90
16999;DHT22;10211;49.476;11.010;2023-08-12T06:23:42;21.20;99.90
16999;DHT22;10211;49.476;11.010;2023-08-12T06:26:09;21.30;99.90
16999;DHT22;10211;49.476;11.010;2023-08-12T06:28:36;21.40;99.90
16999;DHT22;10211;49.476;11.010;2023-08-12T06:31:02;21.40;99.90
16999;DHT22;10211;49.476;11.010;2023-08-12T06:33:30;21.50;99.90
16999;DHT22;10211;49.476;11.010;2023-08-12T06:35:57;21.70;99.90
16999;DHT22;10211;49.476;11.010;2023-08-12T06:38:24;21.70;99.90
16999;DHT22;10211;49.476;11.010;2023-08-12T06:40:50;21.90;99.90
16999;DHT22;10211;49.476;11.010;2023-08-12T06:43:17;22.00;99.90
16999;DHT22;10211;49.476;11.010;2023-08-12T06:45:44;22.30;99.90
16999;DHT22;10211;49.476;11.010;2023-08-12T06:48:10;22.40;99.90
16999;DHT22;10211;49.476;11.010;2023-08-12T06:50:38;22.50;99.90
16999;DHT22;10211;49.476;11.010;2023-08-12T06:53:05;22.60;99.90
16999;DHT22;10211;49.476;11.010;2023-08-12T06:55:32;22.80;99.90
16999;DHT22;10211;49.476;11.010;2023-08-12T06:57:59;22.90;99.90
16999;DHT22;10211;49.476;11.010;2023-08-12T07:00:26;22.90;99.90
16999;DHT22;10211;49.476;11.010;2023-08-12T07:02:53;23.10;99.90
16999;DHT22;10211;49.476;11.010;2023-08-12T07:05:20;23.10;99.90
16999;DHT22;10211;49.476;11.010;2023-08-12T07:07:48;23.40;99.90
16999;DHT22;10211;49.476;11.010;2023-08-12T07:10:15;23.60;99.90
16999;DHT22;10211;49.476;11.010;2023-08-12T07:12:42;23.80;99.90
16999;DHT22;10211;49.476;11.010;2023-08-12T07:15:09;24.10;99.90
16999;DHT22;10211;49.476;11.010;2023-08-12T07:17:37;24.40;99.90
16999;DHT22;10211;49.476;11.010;2023-08-12T07:20:04;24.80;99.90
16999;DHT22;10211;49.476;11.010;2023-08-12T07:22:31;25.00;99.90
16999;DHT22;10211;49.476;11.010;2023-08-12T07:24:59;25.30;99.90
16999;DHT22;10211;49.476;11.010;2023-08-12T07:27:27;25.50;99.90
16999;DHT22;10211;49.476;11.010;2023-08-12T07:29:54;25.80;99.90
16999;DHT22;10211;49.476;11.010;2023-08-12T07:32:21;25.90;99.90
16999;DHT22;10211;49.476;11.010;2023-08-12T07:34:48;25.90;99.90
16999;DHT22;10211;49.476;11.010;2023-08-12T07:37:14;26.00;99.90
16999;DHT22;10211;49.476;11.010;2023-08-12T07:39:41;26.10;99.90
16999;DHT22;10211;49.476;11.010;2023-08-12T07:42:09;26.20;99.90
16999;DHT22;10211;49.476;11.010;2023-08-12T07:44:36;26.40;99.90
16999;DHT22;10211;49.476;11.010;2023-08-12T07:47:02;26.40;99.90
16999;DHT22;10211;49.476;11.010;2023-08-12T07:49:29;26.50;99.90
16999;DHT22;10211;49.476;11.010;2023-08-12T07:51:56;26.60;99.90
16999;DHT22;10211;49.476;11.010;2023-08-12T07:54:23;27.00;99.90
16999;DHT22;10211;49.476;11.010;2023-08-12T07:56:49;27.40;99.90
16999;DHT22;10211;49.476;11.010;2023-08-12T07:59:19;27.50;99.90
16999;DHT22;10211;49.476;11.010;2023-08-12T08:01:46;27.60;99.90
16999;DHT22;10211;49.476;11.010;2023-08-12T08:04:12;27.60;98.90
16999;DHT22;10211;49.476;11.010;2023-08-12T08:06:39;27.60;99.00
16999;DHT22;10211;49.476;11.010;2023-08-12T08:09:06;27.70;98.80
16999;DHT22;10211;49.476;11.010;2023-08-12T08:11:32;27.60;97.80
16999;DHT22;10211;49.476;11.010;2023-08-12T08:13:59;27.60;97.90
16999;DHT22;10211;49.476;11.010;2023-08-12T08:16:27;27.70;98.10
16999;DHT22;10211;49.476;11.010;2023-08-12T08:18:54;27.80;97.80
16999;DHT22;10211;49.476;11.010;2023-08-12T08:21:21;27.80;97.50
16999;DHT22;10211;49.476;11.010;2023-08-12T08:23:47;28.00;97.20
16999;DHT22;10211;49.476;11.010;2023-08-12T08:26:14;27.90;97.40
16999;DHT22;10211;49.476;11.010;2023-08-12T08:28:41;28.20;96.70
16999;DHT22;10211;49.476;11.010;2023-08-12T08:31:08;28.60;96.60
16999;DHT22;10211;49.476;11.010;2023-08-12T08:33:37;28.80;94.90
16999;DHT22;10211;49.476;11.010;2023-08-12T08:36:04;28.90;94.80
16999;DHT22;10211;49.476;11.010;2023-08-12T08:38:30;28.90;94.60
16999;DHT22;10211;49.476;11.010;2023-08-12T08:40:58;28.90;93.90
16999;DHT22;10211;49.476;11.010;2023-08-12T08:43:26;28.90;94.30
16999;DHT22;10211;49.476;11.010;2023-08-12T08:45:54;29.20;94.30
16999;DHT22;10211;49.476;11.010;2023-08-12T08:48:21;29.20;93.10
16999;DHT22;10211;49.476;11.010;2023-08-12T08:50:50;29.30;92.90
16999;DHT22;10211;49.476;11.010;2023-08-12T08:53:18;29.20;92.90
16999;DHT22;10211;49.476;11.010;2023-08-12T08:55:45;29.40;93.30
16999;DHT22;10211;49.476;11.010;2023-08-12T08:58:12;29.10;92.70
16999;DHT22;10211;49.476;11.010;2023-08-12T09:00:39;29.00;93.70
16999;DHT22;10211;49.476;11.010;2023-08-12T09:03:06;28.90;94.10
16999;DHT22;10211;49.476;11.010;2023-08-12T09:05:35;29.00;93.50
16999;DHT22;10211;49.476;11.010;2023-08-12T09:08:05;29.30;93.40
16999;DHT22;10211;49.476;11.010;2023-08-12T09:10:37;29.90;93.20
16999;DHT22;10211;49.476;11.010;2023-08-12T09:13:06;30.30;92.70
16999;DHT22;10211;49.476;11.010;2023-08-12T09:15:34;30.30;90.80
16999;DHT22;10211;49.476;11.010;2023-08-12T09:18:00;30.10;91.10
16999;DHT22;10211;49.476;11.010;2023-08-12T09:20:27;30.00;90.90
16999;DHT22;10211;49.476;11.010;2023-08-12T09:22:57;29.90;91.00
16999;DHT22;10211;49.476;11.010;2023-08-12T09:25:26;29.80;90.50
16999;DHT22;10211;49.476;11.010;2023-08-12T09:27:55;29.80;91.00
16999;DHT22;10211;49.476;11.010;2023-08-12T09:30:22;29.90;91.50
16999;DHT22;10211;49.476;11.010;2023-08-12T09:32:58;30.00;90.60
16999;DHT22;10211;49.476;11.010;2023-08-12T09:35:34;30.10;91.60
16999;DHT22;10211;49.476;11.010;2023-08-12T09:38:02;30.10;91.10
16999;DHT22;10211;49.476;11.010;2023-08-12T09:40:31;30.30;90.60
16999;DHT22;10211;49.476;11.010;2023-08-12T09:42:58;30.50;89.10
16999;DHT22;10211;49.476;11.010;2023-08-12T09:45:25;30.90;88.80
16999;DHT22;10211;49.476;11.010;2023-08-12T09:47:52;31.30;88.50
16999;DHT22;10211;49.476;11.010;2023-08-12T09:50:21;31.70;86.20
16999;DHT22;10211;49.476;11.010;2023-08-12T09:52:48;32.40;84.30
16999;DHT22;10211;49.476;11.010;2023-08-12T09:55:16;33.10;81.60
16999;DHT22;10211;49.476;11.010;2023-08-12T09:57:48;34.00;79.30
16999;DHT22;10211;49.476;11.010;2023-08-12T10:00:15;34.50;77.00
16999;DHT22;10211;49.476;11.010;2023-08-12T10:02:44;34.40;75.80
16999;DHT22;10211;49.476;11.010;2023-08-12T10:05:15;33.90;77.20
16999;DHT22;10211;49.476;11.010;2023-08-12T10:07:43;33.50;76.30
16999;DHT22;10211;49.476;11.010;2023-08-12T10:10:11;33.40;77.00
16999;DHT22;10211;49.476;11.010;2023-08-12T10:12:39;34.30;75.90
16999;DHT22;10211;49.476;11.010;2023-08-12T10:15:08;36.30;72.70
16999;DHT22;10211;49.476;11.010;2023-08-12T10:17:36;38.50;66.70
16999;DHT22;10211;49.476;11.010;2023-08-12T10:20:04;39.20;63.20
16999;DHT22;10211;49.476;11.010;2023-08-12T10:22:33;40.10;61.30
16999;DHT22;10211;49.476;11.010;2023-08-12T10:25:02;41.50;59.50
16999;DHT22;10211;49.476;11.010;2023-08-12T10:27:29;42.90;55.20
16999;DHT22;10211;49.476;11.010;2023-08-12T10:29:56;44.60;53.20
16999;DHT22;10211;49.476;11.010;2023-08-12T10:32:24;45.20;50.80
16999;DHT22;10211;49.476;11.010;2023-08-12T10:34:54;44.80;50.10
16999;DHT22;10211;49.476;11.010;2023-08-12T10:37:23;45.50;48.60
16999;DHT22;10211;49.476;11.010;2023-08-12T10:39:52;46.90;48.10
16999;DHT22;10211;49.476;11.010;2023-08-12T10:42:40;47.90;46.40
16999;DHT22;10211;49.476;11.010;2023-08-12T10:45:08;46.50;46.20
16999;DHT22;10211;49.476;11.010;2023-08-12T10:47:39;44.60;47.70
16999;DHT22;10211;49.476;11.010;2023-08-12T10:50:16;42.30;50.20
16999;DHT22;10211;49.476;11.010;2023-08-12T10:52:43;39.80;53.50
16999;DHT22;10211;49.476;11.010;2023-08-12T10:55:21;38.20;55.80
16999;DHT22;10211;49.476;11.010;2023-08-12T10:57:49;36.90;58.00
16999;DHT22;10211;49.476;11.010;2023-08-12T11:00:17;36.30;59.20
16999;DHT22;10211;49.476;11.010;2023-08-12T11:02:47;36.40;60.00
16999;DHT22;10211;49.476;11.010;2023-08-12T11:05:15;36.80;59.90
16999;DHT22;10211;49.476;11.010;2023-08-12T11:07:42;37.20;59.20
16999;DHT22;10211;49.476;11.010;2023-08-12T11:10:12;38.30;58.30
16999;DHT22;10211;49.476;11.010;2023-08-12T11:12:40;40.80;56.30
16999;DHT22;10211;49.476;11.010;2023-08-12T11:15:07;42.60;53.00
16999;DHT22;10211;49.476;11.010;2023-08-12T11:17:35;42.60;52.40
16999;DHT22;10211;49.476;11.010;2023-08-12T11:20:05;42.90;52.00
16999;DHT22;10211;49.476;11.010;2023-08-12T11:22:35;44.40;51.10
16999;DHT22;10211;49.476;11.010;2023-08-12T11:25:04;46.70;48.10
16999;DHT22;10211;49.476;11.010;2023-08-12T11:27:40;47.60;46.20
16999;DHT22;10211;49.476;11.010;2023-08-12T11:30:08;48.10;45.30
16999;DHT22;10211;49.476;11.010;2023-08-12T11:32:37;49.40;44.90
16999;DHT22;10211;49.476;11.010;2023-08-12T11:35:06;50.30;42.90
16999;DHT22;10211;49.476;11.010;2023-08-12T11:37:35;51.10;42.50
16999;DHT22;10211;49.476;11.010;2023-08-12T11:40:03;52.20;41.70
16999;DHT22;10211;49.476;11.010;2023-08-12T11:42:30;52.90;40.60
16999;DHT22;10211;49.476;11.010;2023-08-12T11:44:57;52.90;39.90
16999;DHT22;10211;49.476;11.010;2023-08-12T11:47:24;53.30;39.90
16999;DHT22;10211;49.476;11.010;2023-08-12T11:49:52;53.30;39.80
16999;DHT22;10211;49.476;11.010;2023-08-12T11:52:20;53.20;39.80
16999;DHT22;10211;49.476;11.010;2023-08-12T11:54:48;53.40;39.00
16999;DHT22;10211;49.476;11.010;2023-08-12T11:57:15;53.50;38.90
16999;DHT22;10211;49.476;11.010;2023-08-12T11:59:42;53.60;38.30
16999;DHT22;10211;49.476;11.010;2023-08-12T12:02:10;54.00;38.60
16999;DHT22;10211;49.476;11.010;2023-08-12T12:04:37;54.20;38.80
16999;DHT22;10211;49.476;11.010;2023-08-12T12:07:17;54.40;38.50
16999;DHT22;10211;49.476;11.010;2023-08-12T12:09:45;54.00;37.20
16999;DHT22;10211;49.476;11.010;2023-08-12T12:12:12;52.90;38.40
16999;DHT22;10211;49.476;11.010;2023-08-12T12:14:38;52.20;39.20
16999;DHT22;10211;49.476;11.010;2023-08-12T12:17:07;52.00;39.50
16999;DHT22;10211;49.476;11.010;2023-08-12T12:19:34;51.70;39.30
16999;DHT22;10211;49.476;11.010;2023-08-12T12:22:03;51.80;39.80
16999;DHT22;10211;49.476;11.010;2023-08-12T12:24:30;51.50;39.50
16999;DHT22;10211;49.476;11.010;2023-08-12T12:26:58;51.10;39.30
16999;DHT22;10211;49.476;11.010;2023-08-12T12:29:25;50.50;39.30
16999;DHT22;10211;49.476;11.010;2023-08-12T12:31:52;49.80;39.80
16999;DHT22;10211;49.476;11.010;2023-08-12T12:34:19;49.30;40.40
16999;DHT22;10211;49.476;11.010;2023-08-12T12:36:45;48.80;41.20
16999;DHT22;10211;49.476;11.010;2023-08-12T12:39:12;48.60;42.50
16999;DHT22;10211;49.476;11.010;2023-08-12T12:41:39;48.30;41.90
16999;DHT22;10211;49.476;11.010;2023-08-12T12:44:07;48.10;42.30
16999;DHT22;10211;49.476;11.010;2023-08-12T12:46:33;48.00;42.20
16999;DHT22;10211;49.476;11.010;2023-08-12T12:49:01;47.90;42.50
16999;DHT22;10211;49.476;11.010;2023-08-12T12:51:28;47.50;41.80
16999;DHT22;10211;49.476;11.010;2023-08-12T12:53:54;47.00;43.20
16999;DHT22;10211;49.476;11.010;2023-08-12T12:56:21;46.70;42.40
16999;DHT22;10211;49.476;11.010;2023-08-12T12:58:48;46.20;43.20
16999;DHT22;10211;49.476;11.010;2023-08-12T13:01:16;45.20;44.50
16999;DHT22;10211;49.476;11.010;2023-08-12T13:03:43;43.90;46.00
16999;DHT22;10211;49.476;11.010;2023-08-12T13:06:09;42.40;47.50
16999;DHT22;10211;49.476;11.010;2023-08-12T13:08:36;40.90;49.10
16999;DHT22;10211;49.476;11.010;2023-08-12T13:11:03;39.90;49.90
16999;DHT22;10211;49.476;11.010;2023-08-12T13:13:29;39.20;51.40
16999;DHT22;10211;49.476;11.010;2023-08-12T13:15:56;38.60;52.60
16999;DHT22;10211;49.476;11.010;2023-08-12T13:18:24;37.60;51.80
16999;DHT22;10211;49.476;11.010;2023-08-12T13:20:51;37.10;53.20
16999;DHT22;10211;49.476;11.010;2023-08-12T13:23:17;36.20;54.80
16999;DHT22;10211;49.476;11.010;2023-08-12T13:25:44;35.70;55.30
16999;DHT22;10211;49.476;11.010;2023-08-12T13:28:11;35.40;56.40
16999;DHT22;10211;49.476;11.010;2023-08-12T13:30:38;35.30;56.60
16999;DHT22;10211;49.476;11.010;2023-08-12T13:33:05;35.20;56.60
16999;DHT22;10211;49.476;11.010;2023-08-12T13:35:33;35.80;56.50
16999;DHT22;10211;49.476;11.010;2023-08-12T13:38:00;35.40;55.70
16999;DHT22;10211;49.476;11.010;2023-08-12T13:40:27;35.30;57.50
16999;DHT22;10211;49.476;11.010;2023-08-12T13:42:54;35.00;57.40
16999;DHT22;10211;49.476;11.010;2023-08-12T13:45:20;34.70;58.40
16999;DHT22;10211;49.476;11.010;2023-08-12T13:47:47;34.20;59.30
16999;DHT22;10211;49.476;11.010;2023-08-12T13:50:14;33.90;60.00
16999;DHT22;10211;49.476;11.010;2023-08-12T13:52:42;33.60;61.00
16999;DHT22;10211;49.476;11.010;2023-08-12T13:55:09;33.10;61.40
16999;DHT22;10211;49.476;11.010;2023-08-12T13:57:36;32.90;62.00
16999;DHT22;10211;49.476;11.010;2023-08-12T14:00:03;32.70;63.20
16999;DHT22;10211;49.476;11.010;2023-08-12T14:02:34;32.50;63.40
16999;DHT22;10211;49.476;11.010;2023-08-12T14:05:01;32.40;65.00
16999;DHT22;10211;49.476;11.010;2023-08-12T14:07:28;32.30;65.10
16999;DHT22;10211;49.476;11.010;2023-08-12T14:09:57;32.20;65.60
16999;DHT22;10211;49.476;11.010;2023-08-12T14:12:24;31.40;68.80
16999;DHT22;10211;49.476;11.010;2023-08-12T14:14:51;30.20;72.60
16999;DHT22;10211;49.476;11.010;2023-08-12T14:17:17;28.90;76.30
16999;DHT22;10211;49.476;11.010;2023-08-12T14:19:49;28.00;80.80
16999;DHT22;10211;49.476;11.010;2023-08-12T14:22:15;27.00;87.20
16999;DHT22;10211;49.476;11.010;2023-08-12T14:24:42;26.20;93.20
16999;DHT22;10211;49.476;11.010;2023-08-12T14:27:11;25.70;99.90
16999;DHT22;10211;49.476;11.010;2023-08-12T14:29:37;25.60;99.90
16999;DHT22;10211;49.476;11.010;2023-08-12T14:32:05;24.80;99.90
16999;DHT22;10211;49.476;11.010;2023-08-12T14:34:31;24.40;99.90
16999;DHT22;10211;49.476;11.010;2023-08-12T14:36:58;24.10;99.90
16999;DHT22;10211;49.476;11.010;2023-08-12T14:39:26;23.80;99.90
16999;DHT22;10211;49.476;11.010;2023-08-12T14:41:52;23.50;99.90
16999;DHT22;10211;49.476;11.010;2023-08-12T14:44:21;22.90;99.90
16999;DHT22;10211;49.476;11.010;2023-08-12T14:46:47;23.30;99.90
16999;DHT22;10211;49.476;11.010;2023-08-12T14:49:14;23.60;99.90
16999;DHT22;10211;49.476;11.010;2023-08-12T14:51:41;23.30;99.90
16999;DHT22;10211;49.476;11.010;2023-08-12T14:54:07;23.30;99.90
16999;DHT22;10211;49.476;11.010;2023-08-12T14:56:34;23.30;99.90
16999;DHT22;10211;49.476;11.010;2023-08-12T14:59:01;23.20;99.90
16999;DHT22;10211;49.476;11.010;2023-08-12T15:01:29;23.20;99.90
16999;DHT22;10211;49.476;11.010;2023-08-12T15:03:56;22.90;99.90
16999;DHT22;10211;49.476;11.010;2023-08-12T15:06:22;22.80;99.90
16999;DHT22;10211;49.476;11.010;2023-08-12T15:08:49;22.60;99.90
16999;DHT22;10211;49.476;11.010;2023-08-12T15:11:16;22.50;99.90
16999;DHT22;10211;49.476;11.010;2023-08-12T15:13:43;22.30;99.90
16999;DHT22;10211;49.476;11.010;2023-08-12T15:16:10;22.30;99.90